• Join FlightAware (Why Join?)
  • Login
  • US Flag 
05:07AM EDT


 

Airport Tracker/Info


-or-


 

Live Flight TrackerFlight Track Log ✈ N18TF ✈ 31-May-2012 ✈ KAPN - KGRR

Flight Track Log - Related Links

Times and Time Zones

All times are in EDT time to prevent confusion due to time zone crossing. See the N18TF flight status page for this flight to view local times or setup timezone preferences in your user account.

Time Position Orientation Groundspeed Altitude Reporting Facility
EDT Latitude Longitude Course Direction KTS MPH feet Rate Location/Type
10:38AM 45.1017 -83.5717 225° Southwest 226 260 2,300  Level Minneapolis Center
10:40AM 45.0083 -83.7028 212° Southwest 220 253 22,000 5,700 Climbing Minneapolis Center
10:41AM 44.9617 -83.7433 212° Southwest 227 261 22,000  Level Minneapolis Center
10:42AM 44.9072 -83.7908 209° Southwest 227 261 22,000 -660 Level Minneapolis Center
10:43AM 44.8506 -83.8358 213° Southwest 227 261 20,700  Descending Minneapolis Center
10:44AM 44.7964 -83.8861 212° Southwest 227 261 22,000 600 Climbing Minneapolis Center
10:45AM 44.7264 -83.9478 213° Southwest 261 300 22,000  Level Minneapolis Center
10:46AM 44.6603 -84.0083 210° Southwest 289 333 22,000  Level Minneapolis Center
10:47AM 44.5803 -84.0744 214° Southwest 322 371 22,000  Level Minneapolis Center
10:48AM 44.5047 -84.1453 211° Southwest 330 380 22,000  Level Minneapolis Center
10:49AM 44.4264 -84.2103 213° Southwest 330 380 22,000  Level Minneapolis Center
10:50AM 44.3525 -84.2775 212° Southwest 330 380 22,000  Level Minneapolis Center
10:51AM 44.2783 -84.3417 212° Southwest 319 367 22,000  Level Minneapolis Center
10:52AM 44.2042 -84.4056 212° Southwest 319 367 22,000  Level Minneapolis Center
10:54AM 44.0517 -84.5369 212° Southwest 307 353 22,000 -60 Level Cleveland Center
10:55AM 43.9764 -84.6014 212° Southwest 314 361 21,900 -1,380 Descending Cleveland Center
10:57AM 43.8417 -84.7186 214° Southwest 325 374 18,400 -1,860 Descending Chicago Center
10:58AM 43.7756 -84.7811 211° Southwest 330 380 17,000 -1,680 Descending Chicago Center
10:59AM 43.6986 -84.8444 213° Southwest 330 380 15,100 -1,620 Descending Chicago Center
11:00AM 43.6261 -84.9100 209° Southwest 324 373 13,800 -1,320 Descending Chicago Center
11:01AM 43.5492 -84.9700 212° Southwest 324 373 12,500 -1,200 Descending Chicago Center
11:02AM 43.4706 -85.0386 210° Southwest 319 367 11,400 -780 Descending Chicago Center
11:03AM 43.3997 -85.0950 211° Southwest 314 361 11,000 -360 Descending Chicago Center
11:04AM 43.3331 -85.1511 211° Southwest 303 349 10,700 -480 Descending Chicago Center
11:05AM 43.2661 -85.2069 218° Southwest 290 334 10,100 -900 Descending Chicago Center
11:06AM 43.2058 -85.2708 218° Southwest 285 328 9,000 -1,080 Descending Chicago Center
11:07AM 43.1436 -85.3375 218° Southwest 280 322 8,000 -1,200 Descending Chicago Center
11:08AM 43.0892 -85.3950 218° Southwest 285 328 6,600 -1,980 Descending Chicago Center
11:09AM 43.0289 -85.4586 221° Southwest 285 328 4,100 -2,100 Descending Chicago Center
11:10AM 42.9789 -85.5183 179° South 272 313 2,500 -1,620 Descending Chicago Center
11:17AM 42.8667 -85.5167 342° North  Level FlightAware Approximate
11:18AM 42.9375 -85.5474 162° South  Level Estimated
11:19AM 42.8667 -85.5167 162° South  Level FlightAware Approximate